Time,TemperatureF,DewpointF,PressureIn,WindDirection,WindDirectionDegrees,WindSpeedMPH,WindSpeedGustMPH,Humidity,HourlyPrecipIn,Conditions,Clouds,dailyrainin,SolarRadiationWatts/m^2,SoftwareType,DateUTC
2013-04-05 00:32:00,52.0,48.0,-100.00,SE,144,3.0,12.0,87,-99.99,,,0.20,1.000000,,2013-04-05 07:32:00,
2013-04-05 00:42:00,52.0,48.0,-100.00,SE,144,3.0,12.0,87,-99.99,,,0.20,1.000000,,2013-04-05 07:42:00,
2013-04-05 00:52:00,52.0,48.0,-100.00,SE,144,3.0,12.0,87,-99.99,,,0.20,1.000000,,2013-04-05 07:52:00,
2013-04-05 01:02:00,52.0,48.0,-100.00,SE,144,3.0,12.0,87,-99.99,,,0.20,1.000000,,2013-04-05 08:02:00,
2013-04-05 01:33:00,53.0,50.0,-100.00,SE,135,3.0,9.0,88,0.00,,,0.20,1.000000,,2013-04-05 08:33:00,
2013-04-05 01:43:00,53.0,50.0,-100.00,SE,135,3.0,9.0,88,0.00,,,0.20,1.000000,,2013-04-05 08:43:00,
2013-04-05 01:52:00,53.0,50.0,-100.00,SE,135,3.0,9.0,88,0.00,,,0.20,1.000000,,2013-04-05 08:52:00,
2013-04-05 02:02:00,53.0,50.0,-100.00,SE,135,3.0,9.0,88,0.00,,,0.20,1.000000,,2013-04-05 09:02:00,
2013-04-05 03:33:00,53.0,47.0,-100.00,SW,231,4.0,9.0,81,-99.99,,,0.20,1.000000,,2013-04-05 10:33:00,
2013-04-05 03:43:00,53.0,47.0,-100.00,SW,231,4.0,9.0,81,-99.99,,,0.20,1.000000,,2013-04-05 10:43:00,
2013-04-05 03:53:00,53.0,47.0,-100.00,SW,231,4.0,9.0,81,-99.99,,,0.20,1.000000,,2013-04-05 10:53:00,
2013-04-05 04:02:00,53.0,47.0,-100.00,SW,231,4.0,9.0,81,-99.99,,,0.20,1.000000,,2013-04-05 11:02:00,
2013-04-05 04:33:00,53.0,49.0,-100.00,SW,231,4.0,10.0,87,0.00,,,0.20,1.000000,,2013-04-05 11:33:00,
2013-04-05 04:42:00,53.0,49.0,-100.00,SW,231,4.0,10.0,87,0.00,,,0.20,1.000000,,2013-04-05 11:42:00,
2013-04-05 04:52:00,53.0,49.0,-100.00,SW,231,4.0,10.0,87,0.00,,,0.20,1.000000,,2013-04-05 11:52:00,
2013-04-05 05:02:00,53.0,49.0,-100.00,SW,231,4.0,10.0,87,0.00,,,0.20,1.000000,,2013-04-05 12:02:00,
2013-04-05 05:32:00,52.0,50.0,-100.00,WSW,238,5.0,13.0,92,0.07,,,0.27,1.000000,,2013-04-05 12:32:00,
2013-04-05 05:42:00,52.0,50.0,-100.00,WSW,238,5.0,13.0,92,0.07,,,0.27,1.000000,,2013-04-05 12:42:00,
2013-04-05 05:52:00,52.0,50.0,-100.00,WSW,238,5.0,13.0,92,0.07,,,0.27,1.000000,,2013-04-05 12:52:00,
2013-04-05 06:02:00,52.0,50.0,-100.00,WSW,238,5.0,13.0,92,0.07,,,0.27,1.000000,,2013-04-05 13:02:00,
2013-04-05 06:32:00,52.0,48.0,-100.00,SW,226,5.0,14.0,86,0.03,,,0.30,1.000000,,2013-04-05 13:32:00,
2013-04-05 06:42:00,52.0,48.0,-100.00,SW,226,5.0,14.0,86,0.03,,,0.30,1.000000,,2013-04-05 13:42:00,
2013-04-05 06:52:00,52.0,48.0,-100.00,SW,226,5.0,14.0,86,0.03,,,0.30,1.000000,,2013-04-05 13:52:00,
2013-04-05 07:02:00,52.0,48.0,-100.00,SW,226,5.0,14.0,86,0.03,,,0.30,1.000000,,2013-04-05 14:02:00,
2013-04-05 07:37:00,53.0,48.0,-100.00,WSW,238,5.0,12.0,82,0.00,,,0.30,2.000000,,2013-04-05 14:37:00,
2013-04-05 07:43:00,53.0,48.0,-100.00,WSW,238,5.0,12.0,82,0.00,,,0.30,2.000000,,2013-04-05 14:43:00,
2013-04-05 07:53:00,53.0,48.0,-100.00,WSW,238,5.0,12.0,82,0.00,,,0.30,2.000000,,2013-04-05 14:53:00,
2013-04-05 08:02:00,53.0,48.0,-100.00,WSW,238,5.0,12.0,82,0.00,,,0.30,2.000000,,2013-04-05 15:02:00,
2013-04-05 08:33:00,53.0,48.0,-100.00,WSW,237,5.0,11.0,83,0.00,,,0.30,11.000000,,2013-04-05 15:33:00,
2013-04-05 08:43:00,53.0,48.0,-100.00,WSW,237,5.0,11.0,83,0.00,,,0.30,11.000000,,2013-04-05 15:43:00,
2013-04-05 08:53:00,53.0,48.0,-100.00,WSW,237,5.0,11.0,83,0.00,,,0.30,11.000000,,2013-04-05 15:53:00,
2013-04-05 09:02:00,53.0,48.0,-100.00,WSW,237,5.0,11.0,83,0.00,,,0.30,11.000000,,2013-04-05 16:02:00,
2013-04-05 09:33:00,54.0,48.0,-100.00,WSW,254,5.0,12.0,79,0.00,,,0.30,44.000000,,2013-04-05 16:33:00,
2013-04-05 09:43:00,54.0,48.0,-100.00,WSW,254,5.0,12.0,79,0.00,,,0.30,44.000000,,2013-04-05 16:43:00,
2013-04-05 09:53:00,54.0,48.0,-100.00,WSW,254,5.0,12.0,79,0.00,,,0.30,44.000000,,2013-04-05 16:53:00,
2013-04-05 10:02:00,54.0,48.0,-100.00,WSW,254,5.0,12.0,79,0.00,,,0.30,44.000000,,2013-04-05 17:02:00,
2013-04-05 10:33:00,53.0,50.0,-100.00,SW,233,5.0,12.0,88,0.00,,,0.29,83.000000,,2013-04-05 17:33:00,
2013-04-05 10:45:00,53.0,50.0,-100.00,SW,233,5.0,12.0,88,0.00,,,0.29,83.000000,,2013-04-05 17:45:00,
2013-04-05 10:52:00,53.0,50.0,-100.00,SW,233,5.0,12.0,88,0.00,,,0.29,83.000000,,2013-04-05 17:52:00,
2013-04-05 11:02:00,53.0,50.0,-100.00,SW,233,5.0,12.0,88,0.00,,,0.29,83.000000,,2013-04-05 18:02:00,
2013-04-05 11:43:00,55.0,51.0,-100.00,WSW,238,4.0,11.0,86,0.02,,,0.31,167.000000,,2013-04-05 18:43:00,
2013-04-05 11:52:00,55.0,51.0,-100.00,WSW,238,4.0,11.0,86,0.02,,,0.31,167.000000,,2013-04-05 18:52:00,
2013-04-05 12:02:00,55.0,51.0,-100.00,WSW,238,4.0,11.0,86,0.02,,,0.31,167.000000,,2013-04-05 19:02:00,
2013-04-05 12:33:00,58.0,50.0,-100.00,West,259,6.0,12.0,75,0.00,,,0.30,279.000000,,2013-04-05 19:33:00,
2013-04-05 12:42:00,58.0,50.0,-100.00,West,259,6.0,12.0,75,0.00,,,0.30,279.000000,,2013-04-05 19:42:00,
2013-04-05 12:52:00,58.0,50.0,-100.00,West,259,6.0,12.0,75,0.00,,,0.30,279.000000,,2013-04-05 19:52:00,
2013-04-05 13:02:00,58.0,50.0,-100.00,West,259,6.0,12.0,75,0.00,,,0.30,279.000000,,2013-04-05 20:02:00,
2013-04-05 13:33:00,55.0,51.0,-100.00,WSW,257,5.0,14.0,87,0.02,,,0.29,177.000000,,2013-04-05 20:33:00,
2013-04-05 13:43:00,55.0,51.0,-100.00,WSW,257,5.0,14.0,87,0.02,,,0.29,177.000000,,2013-04-05 20:43:00,
2013-04-05 13:52:00,55.0,51.0,-100.00,WSW,257,5.0,14.0,87,0.02,,,0.29,177.000000,,2013-04-05 20:52:00,
2013-04-05 14:02:00,55.0,51.0,-100.00,WSW,257,5.0,14.0,87,0.02,,,0.29,177.000000,,2013-04-05 21:02:00,
2013-04-05 14:34:00,54.0,51.0,-100.00,SW,218,5.0,10.0,91,0.09,,,0.33,157.000000,,2013-04-05 21:34:00,
2013-04-05 14:44:00,54.0,51.0,-100.00,SW,218,5.0,10.0,91,0.09,,,0.33,157.000000,,2013-04-05 21:44:00,
2013-04-05 14:54:00,54.0,51.0,-100.00,SW,218,5.0,10.0,91,0.09,,,0.33,157.000000,,2013-04-05 21:54:00,
2013-04-05 15:02:00,54.0,51.0,-100.00,SW,218,5.0,10.0,91,0.09,,,0.33,157.000000,,2013-04-05 22:02:00,
2013-04-05 15:33:00,55.0,53.0,-100.00,SSW,203,3.0,8.0,92,0.00,,,0.32,142.000000,,2013-04-05 22:33:00,
2013-04-05 15:43:00,55.0,53.0,-100.00,SSW,203,3.0,8.0,92,0.00,,,0.32,142.000000,,2013-04-05 22:43:00,
2013-04-05 15:53:00,55.0,53.0,-100.00,SSW,203,3.0,8.0,92,0.00,,,0.32,142.000000,,2013-04-05 22:53:00,
2013-04-05 16:02:00,55.0,53.0,-100.00,SSW,203,3.0,8.0,92,0.00,,,0.32,142.000000,,2013-04-05 23:02:00,
2013-04-05 16:33:00,54.0,52.0,-100.00,SSE,157,2.0,5.0,94,0.02,,,0.28,96.000000,,2013-04-05 23:33:00,
2013-04-05 16:42:00,54.0,52.0,-100.00,SSE,157,2.0,5.0,94,0.02,,,0.28,96.000000,,2013-04-05 23:42:00,
2013-04-05 16:52:00,54.0,52.0,-100.00,SSE,157,2.0,5.0,94,0.02,,,0.28,96.000000,,2013-04-05 23:52:00,
2013-04-05 17:02:00,54.0,52.0,-100.00,SSE,157,2.0,5.0,94,0.02,,,0.28,96.000000,,2013-04-06 00:02:00,
2013-04-05 17:33:00,53.0,51.0,-100.00,South,182,3.0,6.0,94,0.11,,,0.39,36.000000,,2013-04-06 00:33:00,
2013-04-05 17:42:00,53.0,51.0,-100.00,South,182,3.0,6.0,94,0.11,,,0.39,36.000000,,2013-04-06 00:42:00,
2013-04-05 17:52:00,53.0,51.0,-100.00,South,182,3.0,6.0,94,0.11,,,0.39,36.000000,,2013-04-06 00:52:00,
2013-04-05 18:02:00,53.0,51.0,-100.00,South,182,3.0,6.0,94,0.11,,,0.39,36.000000,,2013-04-06 01:02:00,
2013-04-05 18:33:00,52.0,50.0,-100.00,SSW,208,3.0,6.0,94,0.07,,,0.46,30.000000,,2013-04-06 01:33:00,
2013-04-05 18:43:00,52.0,50.0,-100.00,SSW,208,3.0,6.0,94,0.07,,,0.46,30.000000,,2013-04-06 01:43:00,
2013-04-05 18:53:00,52.0,50.0,-100.00,SSW,208,3.0,6.0,94,0.07,,,0.46,30.000000,,2013-04-06 01:53:00,
2013-04-05 19:02:00,52.0,50.0,-100.00,SSW,208,3.0,6.0,94,0.07,,,0.46,30.000000,,2013-04-06 02:02:00,
2013-04-05 19:33:00,51.0,50.0,-100.00,SE,134,2.0,4.0,96,0.03,,,0.48,15.000000,,2013-04-06 02:33:00,
2013-04-05 19:43:00,51.0,50.0,-100.00,SE,134,2.0,4.0,96,0.03,,,0.48,15.000000,,2013-04-06 02:43:00,
2013-04-05 19:52:00,51.0,50.0,-100.00,SE,134,2.0,4.0,96,0.03,,,0.48,15.000000,,2013-04-06 02:52:00,
2013-04-05 20:02:00,51.0,50.0,-100.00,SE,134,2.0,4.0,96,0.03,,,0.48,15.000000,,2013-04-06 03:02:00,
2013-04-05 20:34:00,50.0,49.0,-100.00,ESE,107,2.0,4.0,97,0.02,,,0.50,3.000000,,2013-04-06 03:34:00,
2013-04-05 20:43:00,50.0,49.0,-100.00,ESE,107,2.0,4.0,97,0.02,,,0.50,3.000000,,2013-04-06 03:43:00,
2013-04-05 20:53:00,50.0,49.0,-100.00,ESE,107,2.0,4.0,97,0.02,,,0.50,3.000000,,2013-04-06 03:53:00,
2013-04-05 21:03:00,50.0,49.0,-100.00,ESE,107,2.0,4.0,97,0.02,,,0.50,3.000000,,2013-04-06 04:03:00,
2013-04-05 21:33:00,50.0,49.0,-100.00,SE,130,1.0,5.0,98,0.02,,,0.52,1.000000,,2013-04-06 04:33:00,
2013-04-05 21:43:00,50.0,49.0,-100.00,SE,130,1.0,5.0,98,0.02,,,0.52,1.000000,,2013-04-06 04:43:00,
2013-04-05 21:53:00,50.0,49.0,-100.00,SE,130,1.0,5.0,98,0.02,,,0.52,1.000000,,2013-04-06 04:53:00,
2013-04-05 22:02:00,50.0,49.0,-100.00,SE,130,1.0,5.0,98,0.02,,,0.52,1.000000,,2013-04-06 05:02:00,
2013-04-05 22:43:00,50.0,49.0,-100.00,East,88,1.0,5.0,98,0.00,,,0.52,1.000000,,2013-04-06 05:43:00,
2013-04-05 22:52:00,50.0,49.0,-100.00,East,88,1.0,5.0,98,0.00,,,0.52,1.000000,,2013-04-06 05:52:00,
2013-04-05 23:02:00,50.0,49.0,-100.00,East,88,1.0,5.0,98,0.00,,,0.52,1.000000,,2013-04-06 06:02:00,
2013-04-05 23:33:00,49.0,48.0,-100.00,East,83,2.0,5.0,98,0.03,,,-99.99,1.000000,,2013-04-06 06:33:00,
2013-04-05 23:43:00,49.0,48.0,-100.00,East,83,2.0,5.0,98,0.03,,,-99.99,1.000000,,2013-04-06 06:43:00,
2013-04-05 23:52:00,49.0,48.0,-100.00,East,83,2.0,5.0,98,0.03,,,-99.99,1.000000,,2013-04-06 06:52:00,